This is the latest recevied weather packets stored in our database for station/object IK1PCD-11. If no packets are shown the sender has not sent any weather packets the latest 10 day(s).
| Time | Temp. | Humidity | Pressure | Rain* | Wind** | Luminosity | Snow |
|---|---|---|---|---|---|---|---|
| 1777551428 | 15° C | 55% | 1021 hPa | - | - | - | - |
| 1777550527 | 12.22° C | 63% | 1020.9 hPa | - | - | - | - |
| 1777549627 | 15.56° C | 54% | 1021 hPa | - | - | - | - |
| 1777548727 | 12.78° C | 61% | 1020.8 hPa | - | - | - | - |
| 1777547827 | 12.78° C | 60% | 1020.7 hPa | - | - | - | - |
| 1777546927 | 13.89° C | 59% | 1020.8 hPa | - | - | - | - |
| 1777546027 | 12.78° C | 60% | 1020.6 hPa | - | - | - | - |
| 1777545127 | 13.89° C | 55% | 1020.7 hPa | - | - | - | - |
| 1777544227 | 13.89° C | 59% | 1020.6 hPa | - | - | - | - |
| 1777543327 | 13.33° C | 61% | 1020.5 hPa | - | - | - | - |
| 1777542427 | 12.22° C | 64% | 1020.3 hPa | - | - | - | - |
| 1777541526 | 11.67° C | 63% | 1020.2 hPa | - | - | - | - |
| 1777540634 | 11.11° C | 66% | 1020.1 hPa | - | - | - | - |
| 1777539719 | 12.78° C | 65% | 1019.9 hPa | - | - | - | - |
| 1777538818 | 11.67° C | 63% | 1019.8 hPa | - | - | - | - |
| 1777537918 | 10.56° C | 67% | 1019.8 hPa | - | - | - | - |
| 1777537018 | 10.56° C | 72% | 1019.8 hPa | - | - | - | - |
| 1777536118 | 10° C | 76% | 1019.6 hPa | - | - | - | - |
| 1777535218 | 10° C | 80% | 1019.5 hPa | - | - | - | - |
| 1777534318 | 8.89° C | 84% | 1019.5 hPa | - | - | - | - |
| 1777533417 | 8.89° C | 83% | 1019.4 hPa | - | - | - | - |
| 1777532517 | 8.89° C | 87% | 1019.3 hPa | - | - | - | - |
| 1777531617 | 8.33° C | 90% | 1019.2 hPa | - | - | - | - |
| 1777530717 | 8.33° C | 88% | 1018.9 hPa | - | - | - | - |
| 1777529817 | 7.78° C | 91% | 1018.9 hPa | - | - | - | - |
* Rain since midnight (hover to see other rain measurements)
** Current wind speed in m/s (hover to see current wind gust speed)